Time;durP1;ratioP1;P1;durP2;ratioP2;P2;SDS_P1;SDS_P2;PMS_P1;PMS_P2;Temp;Humidity;BMP_temperature;BMP_pressure;BME280_temperature;BME280_humidity;BME280_pressure;Samples;Min_cycle;Max_cycle;Signal;HPM_P1;HPM_P2
2022/01/23 00:00:34;;;;;;;17.48;7.15;;;6.00;99.90;;;;;;5047765;28;20059;-46
2022/01/23 00:03:02;;;;;;;16.23;7.75;;;6.00;99.90;;;;;;5045946;28;20045;-42
2022/01/23 00:05:34;;;;;;;19.23;8.13;;;6.00;99.90;;;;;;5041363;28;20061;-44
2022/01/23 00:08:01;;;;;;;22.85;9.38;;;6.00;99.90;;;;;;5053298;28;20075;-43
2022/01/23 00:10:29;;;;;;;19.42;7.80;;;6.00;99.90;;;;;;5046290;28;20139;-43
2022/01/23 00:13:07;;;;;;;15.38;7.38;;;6.00;99.90;;;;;;5047046;28;20171;-45
2022/01/23 00:18:38;;;;;;;32.40;15.73;;;6.00;99.90;;;;;;5003606;28;20078;-45
2022/01/23 00:21:04;;;;;;;32.17;16.83;;;6.00;99.90;;;;;;5006881;28;20078;-43
2022/01/23 00:30:20;;;;;;;23.00;11.02;;;6.00;99.90;;;;;;5016074;28;20055;-44
2022/01/23 00:31:49;;;;;;;11.18;5.93;;;6.00;99.90;;;;;;5050642;28;20061;-44
2022/01/23 00:34:15;;;;;;;16.77;7.32;;;6.00;99.90;;;;;;5047947;28;20055;-44
2022/01/23 00:36:42;;;;;;;15.77;6.95;;;6.00;99.90;;;;;;5044344;28;20060;-45
2022/01/23 00:39:09;;;;;;;14.35;6.03;;;6.00;99.90;;;;;;5046048;28;20056;-44
2022/01/23 00:41:37;;;;;;;13.88;5.88;;;6.00;99.90;;;;;;5050394;28;20496;-44
2022/01/23 00:44:04;;;;;;;13.82;6.13;;;6.00;99.90;;;;;;5048130;28;20051;-44
2022/01/23 00:46:34;;;;;;;11.65;5.05;;;5.90;99.90;;;;;;5049677;28;20053;-45
2022/01/23 00:51:45;;;;;;;16.40;6.60;;;6.00;99.90;;;;;;5046112;28;20045;-45
2022/01/23 00:54:12;;;;;;;12.98;5.45;;;6.00;99.90;;;;;;5047715;28;20049;-45
2022/01/23 00:56:40;;;;;;;13.13;5.55;;;6.00;99.90;;;;;;5046777;28;20055;-43
2022/01/23 00:59:07;;;;;;;14.77;6.20;;;6.00;99.90;;;;;;5046844;28;20495;-44
2022/01/23 01:01:33;;;;;;;18.63;6.53;;;6.00;99.90;;;;;;5052111;28;20469;-42
2022/01/23 01:04:00;;;;;;;20.90;7.15;;;6.00;99.90;;;;;;5051091;28;20061;-44
2022/01/23 01:06:27;;;;;;;16.17;7.30;;;6.00;99.90;;;;;;5050815;28;20119;-43
2022/01/23 01:08:55;;;;;;;21.15;7.80;;;6.00;99.90;;;;;;5043466;28;20370;-42
2022/01/23 01:11:50;;;;;;;11.55;6.35;;;5.90;99.90;;;;;;5045610;28;20409;-45
2022/01/23 01:14:27;;;;;;;15.23;6.35;;;6.00;99.90;;;;;;5049511;28;20053;-45
2022/01/23 01:17:01;;;;;;;20.23;7.63;;;6.00;99.90;;;;;;5053520;28;20131;-43
2022/01/23 01:30:34;;;;;;;14.23;6.72;;;6.00;99.90;;;;;;5050052;28;20053;-44
2022/01/23 01:33:12;;;;;;;20.42;7.22;;;5.90;99.90;;;;;;5046485;28;20057;-42
2022/01/23 01:35:43;;;;;;;21.92;6.35;;;5.90;99.90;;;;;;5044284;28;20041;-44
2022/01/23 01:38:09;;;;;;;16.80;6.57;;;6.00;99.90;;;;;;5050852;28;20131;-44
2022/01/23 01:40:36;;;;;;;17.13;5.88;;;6.00;99.90;;;;;;5050115;28;20069;-44
2022/01/23 01:43:03;;;;;;;18.30;6.68;;;5.90;99.90;;;;;;5047371;28;20045;-44
2022/01/23 01:45:32;;;;;;;12.88;5.78;;;6.00;99.90;;;;;;5045956;28;20055;-44
2022/01/23 01:48:01;;;;;;;15.00;5.47;;;6.00;99.90;;;;;;5045097;28;20459;-44
2022/01/23 01:50:28;;;;;;;18.52;6.78;;;6.00;99.90;;;;;;5046729;28;20103;-45
2022/01/23 01:52:54;;;;;;;22.38;7.18;;;5.90;99.90;;;;;;5043859;28;20127;-44
2022/01/23 01:55:25;;;;;;;13.73;6.25;;;6.00;99.90;;;;;;5042975;28;20132;-44
2022/01/23 01:57:55;;;;;;;16.92;7.00;;;6.00;99.90;;;;;;5039781;28;20159;-44
2022/01/23 02:00:39;;;;;;;16.10;6.82;;;6.00;99.90;;;;;;5046399;28;20049;-44
2022/01/23 02:03:24;;;;;;;21.90;6.97;;;5.90;99.90;;;;;;5045049;28;20400;-44
2022/01/23 02:08:37;;;;;;;17.90;7.50;;;5.90;99.90;;;;;;5044224;28;20050;-43
2022/01/23 02:11:09;;;;;;;16.73;6.53;;;6.00;99.90;;;;;;5047206;28;20088;-44
2022/01/23 02:13:40;;;;;;;;;;;6.00;99.90;;;;;;5043877;28;20132;-42
2022/01/23 02:16:40;;;;;;;14.37;7.37;;;5.90;99.90;;;;;;5046110;28;19987;-44
2022/01/23 02:52:08;;;;;;;19.48;7.32;;;5.90;99.90;;;;;;5045296;28;20053;-44
2022/01/23 02:54:53;;;;;;;18.27;7.53;;;5.90;99.90;;;;;;5044589;28;20068;-45
2022/01/23 02:57:32;;;;;;;19.52;7.63;;;5.90;99.90;;;;;;5045681;28;20057;-42
2022/01/23 02:59:59;;;;;;;19.15;7.57;;;5.90;99.90;;;;;;5049495;28;20507;-44
2022/01/23 03:02:34;;;;;;;18.00;7.78;;;5.90;99.90;;;;;;5052000;28;20055;-44
2022/01/23 03:05:02;;;;;;;16.55;7.05;;;5.90;99.90;;;;;;5053766;28;20084;-44
2022/01/23 03:07:49;;;;;;;11.30;5.60;;;5.90;99.90;;;;;;5046169;28;20493;-44
2022/01/23 03:10:36;;;;;;;13.93;5.40;;;6.00;99.90;;;;;;5051516;28;20060;-45
2022/01/23 03:16:09;;;;;;;14.13;6.70;;;5.90;99.90;;;;;;5050192;28;20052;-44
2022/01/23 03:24:34;;;;;;;18.42;7.18;;;5.90;99.90;;;;;;5006426;28;20073;-45
2022/01/23 03:27:25;;;;;;;;;;;5.90;99.90;;;;;;4990206;28;20150;-43
2022/01/23 03:29:55;;;;;;;20.83;8.35;;;5.90;99.90;;;;;;5031111;28;19983;-42
2022/01/23 03:32:27;;;;;;;12.35;7.07;;;5.90;99.90;;;;;;5051947;28;20053;-43
2022/01/23 03:34:54;;;;;;;18.73;8.00;;;5.90;99.90;;;;;;5048308;28;20045;-45
2022/01/23 03:37:20;;;;;;;20.90;8.82;;;5.90;99.90;;;;;;5053487;28;20045;-43
2022/01/23 03:39:47;;;;;;;24.02;9.60;;;5.90;99.90;;;;;;5052257;28;20128;-44
2022/01/23 03:42:15;;;;;;;12.85;7.00;;;5.90;99.90;;;;;;5054083;28;20063;-43
2022/01/23 03:44:52;;;;;;;14.23;8.40;;;5.90;99.90;;;;;;5053550;28;20142;-43
2022/01/23 03:47:33;;;;;;;23.20;8.90;;;5.90;99.90;;;;;;5052664;28;20056;-44
2022/01/23 03:49:58;;;;;;;18.55;8.77;;;5.90;99.90;;;;;;5048567;28;20072;-45
2022/01/23 03:52:26;;;;;;;20.40;8.90;;;5.90;99.90;;;;;;5051296;28;20053;-43
2022/01/23 03:54:53;;;;;;;17.10;8.63;;;5.90;99.90;;;;;;5051016;28;20473;-43
2022/01/23 03:57:21;;;;;;;19.15;9.00;;;5.90;99.90;;;;;;5041134;28;20051;-42
2022/01/23 03:59:48;;;;;;;16.00;7.88;;;5.90;99.90;;;;;;5045194;28;20063;-44
2022/01/23 04:02:16;;;;;;;20.27;9.45;;;5.90;99.90;;;;;;5041719;28;20053;-44
2022/01/23 04:04:43;;;;;;;20.00;9.48;;;5.90;99.90;;;;;;5040836;28;20049;-43
2022/01/23 04:07:17;;;;;;;22.08;8.68;;;5.90;99.90;;;;;;5052169;28;20045;-45
2022/01/23 04:09:44;;;;;;;18.67;8.20;;;5.90;99.90;;;;;;5046421;28;20106;-43
2022/01/23 04:12:24;;;;;;;13.60;8.52;;;5.90;99.90;;;;;;5050378;28;20053;-43
2022/01/23 04:14:58;;;;;;;26.65;10.40;;;5.90;99.90;;;;;;5048381;28;20040;-44
2022/01/23 04:20:30;;;;;;;20.48;10.40;;;5.90;99.90;;;;;;5050893;28;20136;-43
2022/01/23 04:33:58;;;;;;;20.33;8.13;;;5.90;99.90;;;;;;5051130;28;20053;-45
2022/01/23 05:01:28;;;;;;;17.33;8.63;;;5.90;99.90;;;;;;5047878;28;20063;-45
2022/01/23 05:06:45;;;;;;;12.13;7.47;;;5.90;99.90;;;;;;5051060;28;20044;-45
2022/01/23 05:09:11;;;;;;;15.75;7.97;;;5.80;99.90;;;;;;5049072;28;20060;-45
2022/01/23 05:11:42;;;;;;;16.55;9.00;;;5.90;99.90;;;;;;5050176;28;20401;-43
2022/01/23 05:14:09;;;;;;;15.80;8.45;;;5.90;99.90;;;;;;5047104;28;20115;-42
2022/01/23 05:16:36;;;;;;;11.60;7.28;;;5.90;99.90;;;;;;5050515;28;20068;-44
2022/01/23 05:19:04;;;;;;;14.98;8.00;;;5.80;99.90;;;;;;5051347;28;20140;-43
2022/01/23 05:24:11;;;;;;;14.25;7.50;;;5.90;99.90;;;;;;5049195;28;20053;-42
2022/01/23 05:26:43;;;;;;;12.68;7.47;;;5.90;99.90;;;;;;5047888;28;20073;-45
2022/01/23 05:29:10;;;;;;;15.00;7.80;;;5.90;99.90;;;;;;5047958;28;20087;-45
2022/01/23 05:31:37;;;;;;;16.25;8.82;;;5.80;99.90;;;;;;5051159;28;20084;-45
2022/01/23 05:34:05;;;;;;;17.17;8.15;;;5.80;99.90;;;;;;5051273;28;20049;-44
2022/01/23 05:36:31;;;;;;;14.93;7.32;;;5.80;99.90;;;;;;5048659;28;20481;-45
2022/01/23 05:38:58;;;;;;;14.02;7.45;;;5.80;99.90;;;;;;5048871;28;20060;-42
2022/01/23 05:41:26;;;;;;;20.83;7.75;;;5.80;99.90;;;;;;5042830;28;20119;-45
2022/01/23 05:43:52;;;;;;;14.95;7.50;;;5.80;99.90;;;;;;5041474;28;20081;-45
2022/01/23 05:46:19;;;;;;;13.38;7.10;;;5.80;99.90;;;;;;5049926;28;20057;-43
2022/01/23 05:48:46;;;;;;;17.33;8.85;;;5.80;99.90;;;;;;5049601;28;20047;-44
2022/01/23 05:51:14;;;;;;;13.10;6.95;;;5.80;99.90;;;;;;5051002;28;20396;-42
2022/01/23 05:53:40;;;;;;;19.75;8.15;;;5.80;99.90;;;;;;5049811;28;20129;-44
2022/01/23 05:56:07;;;;;;;12.70;7.38;;;5.80;99.90;;;;;;5050851;28;20136;-44
2022/01/23 05:58:34;;;;;;;16.95;7.95;;;5.80;99.90;;;;;;5043841;28;20037;-45
2022/01/23 06:01:01;;;;;;;15.27;8.15;;;5.80;99.90;;;;;;5050647;28;20057;-43
2022/01/23 06:03:27;;;;;;;16.80;7.25;;;5.80;99.90;;;;;;5042995;28;20045;-44
2022/01/23 06:05:54;;;;;;;16.27;7.80;;;5.80;99.90;;;;;;5045340;28;20053;-44
2022/01/23 06:08:23;;;;;;;17.80;8.10;;;5.80;99.90;;;;;;5044298;28;20079;-46
2022/01/23 06:10:56;;;;;;;15.27;7.32;;;5.80;99.90;;;;;;5045915;28;20126;-42
2022/01/23 06:13:22;;;;;;;14.20;7.55;;;5.80;99.90;;;;;;5041815;28;20060;-43
2022/01/23 06:15:49;;;;;;;13.88;6.80;;;5.80;99.90;;;;;;5051513;28;20136;-43
2022/01/23 06:18:16;;;;;;;14.05;7.55;;;5.80;99.90;;;;;;5051020;28;20049;-44
2022/01/23 06:20:43;;;;;;;17.52;7.25;;;5.80;99.90;;;;;;5038101;28;20519;-44
2022/01/23 06:23:09;;;;;;;15.90;7.10;;;5.80;99.90;;;;;;5045364;28;20042;-45
2022/01/23 06:25:37;;;;;;;16.02;7.53;;;5.80;99.90;;;;;;5048647;28;20129;-43
2022/01/23 06:28:05;;;;;;;13.65;6.88;;;5.80;99.90;;;;;;5049952;28;20053;-43
2022/01/23 06:30:31;;;;;;;11.90;5.97;;;5.80;99.90;;;;;;5045238;28;20049;-44
2022/01/23 06:32:58;;;;;;;17.13;7.22;;;5.80;99.90;;;;;;5047081;28;20049;-42
2022/01/23 06:35:29;;;;;;;16.77;7.38;;;5.80;99.90;;;;;;5048747;28;20142;-44
2022/01/23 06:37:55;;;;;;;12.57;6.63;;;5.80;99.90;;;;;;5055365;28;20055;-43
2022/01/23 06:40:22;;;;;;;10.48;6.15;;;5.80;99.90;;;;;;5053817;28;20115;-44
2022/01/23 06:42:50;;;;;;;16.63;6.82;;;5.80;99.90;;;;;;5048781;28;20104;-43
2022/01/23 06:45:17;;;;;;;11.63;6.50;;;5.80;99.90;;;;;;5052063;28;20049;-43
2022/01/23 06:47:43;;;;;;;11.43;5.68;;;5.80;99.90;;;;;;5054556;28;20061;-44
2022/01/23 06:50:10;;;;;;;13.77;6.90;;;5.80;99.90;;;;;;5050404;28;20256;-45
2022/01/23 06:52:37;;;;;;;15.98;7.53;;;5.80;99.90;;;;;;5049645;28;20048;-44
2022/01/23 06:55:04;;;;;;;10.25;6.45;;;5.80;99.90;;;;;;5048466;28;20470;-43
2022/01/23 06:57:31;;;;;;;18.98;7.28;;;5.80;99.90;;;;;;5054480;28;20095;-43
2022/01/23 06:59:59;;;;;;;11.98;5.53;;;5.80;99.90;;;;;;5053894;28;20408;-44
2022/01/23 07:02:26;;;;;;;9.43;5.68;;;5.80;99.90;;;;;;5050539;28;20484;-44
2022/01/23 07:04:52;;;;;;;11.63;6.22;;;5.80;99.90;;;;;;5048457;28;20498;-42
2022/01/23 07:07:19;;;;;;;12.75;6.65;;;5.80;99.90;;;;;;5045053;28;20133;-43
2022/01/23 07:09:46;;;;;;;13.07;6.57;;;5.80;99.90;;;;;;5050434;28;20462;-43
2022/01/23 07:12:13;;;;;;;19.13;7.53;;;5.80;99.90;;;;;;5041449;28;20179;-45
2022/01/23 07:14:39;;;;;;;16.58;7.72;;;5.80;99.90;;;;;;5049124;28;20053;-44
2022/01/23 07:17:07;;;;;;;17.65;7.93;;;5.80;99.90;;;;;;5044487;28;20128;-43
2022/01/23 07:19:34;;;;;;;16.60;7.65;;;5.80;99.90;;;;;;5050208;28;20053;-43
2022/01/23 07:22:01;;;;;;;18.27;7.53;;;5.80;99.90;;;;;;5048674;28;20045;-44
2022/01/23 07:24:28;;;;;;;14.45;7.38;;;5.80;99.90;;;;;;5044816;28;20045;-45
2022/01/23 07:26:54;;;;;;;14.57;6.97;;;5.80;99.90;;;;;;5054879;28;20420;-45
2022/01/23 07:29:21;;;;;;;20.23;8.35;;;5.80;99.90;;;;;;5053662;28;20136;-42
2022/01/23 07:31:59;;;;;;;15.65;7.03;;;5.80;99.90;;;;;;5053079;28;20541;-44
2022/01/23 07:34:27;;;;;;;18.92;7.82;;;5.80;99.90;;;;;;5049370;28;20095;-44
2022/01/23 07:36:54;;;;;;;15.10;7.50;;;5.80;99.90;;;;;;5052883;28;20449;-44
2022/01/23 07:39:21;;;;;;;14.45;6.88;;;5.80;99.90;;;;;;5050668;28;20127;-44
2022/01/23 07:41:47;;;;;;;19.08;8.13;;;5.80;99.90;;;;;;5053470;28;20481;-44
2022/01/23 07:44:14;;;;;;;19.80;8.30;;;5.80;99.90;;;;;;5051926;28;20053;-44
2022/01/23 07:46:41;;;;;;;20.20;7.78;;;5.80;99.90;;;;;;5053577;28;20382;-44
2022/01/23 07:49:07;;;;;;;17.48;9.10;;;5.80;99.90;;;;;;5041562;28;20054;-44
2022/01/23 07:51:35;;;;;;;19.75;9.75;;;5.80;99.90;;;;;;5050355;28;20050;-43
2022/01/23 07:54:02;;;;;;;14.10;8.48;;;5.80;99.90;;;;;;5050281;28;20052;-45
2022/01/23 07:56:32;;;;;;;20.67;9.73;;;5.80;99.90;;;;;;5047323;28;20041;-43
2022/01/23 07:58:59;;;;;;;20.35;10.77;;;5.80;99.90;;;;;;5043280;28;20053;-42
2022/01/23 08:01:26;;;;;;;20.15;7.68;;;5.80;99.90;;;;;;5038510;28;20060;-45
2022/01/23 08:03:53;;;;;;;18.98;9.57;;;5.80;99.90;;;;;;5043086;28;20041;-44
2022/01/23 08:06:21;;;;;;;18.08;9.30;;;5.80;99.90;;;;;;5046506;28;20048;-44
2022/01/23 08:08:49;;;;;;;19.17;8.68;;;5.80;99.90;;;;;;5049687;28;20057;-44
2022/01/23 08:11:16;;;;;;;19.75;8.55;;;5.90;99.90;;;;;;5051326;28;20053;-44
2022/01/23 08:13:42;;;;;;;13.45;7.45;;;5.80;99.90;;;;;;5046972;28;20057;-44
2022/01/23 08:16:10;;;;;;;16.02;8.77;;;5.80;99.90;;;;;;5048371;28;20067;-42
2022/01/23 08:18:36;;;;;;;22.55;9.35;;;5.80;99.90;;;;;;5047044;28;20049;-42
2022/01/23 08:21:03;;;;;;;21.02;9.55;;;5.90;99.90;;;;;;5048413;28;20091;-45
2022/01/23 08:23:30;;;;;;;18.08;8.63;;;5.90;99.90;;;;;;5046563;28;20056;-43
2022/01/23 08:25:58;;;;;;;15.43;8.10;;;5.90;99.90;;;;;;5052633;28;20073;-45
2022/01/23 08:28:25;;;;;;;15.32;8.82;;;5.90;99.90;;;;;;5051274;28;20383;-43
2022/01/23 08:30:51;;;;;;;18.75;9.77;;;5.90;99.90;;;;;;5045049;28;20072;-43
2022/01/23 08:33:18;;;;;;;17.85;8.25;;;5.90;99.90;;;;;;5049183;28;20049;-44
2022/01/23 08:35:47;;;;;;;20.83;10.18;;;5.90;99.90;;;;;;5049902;28;20048;-45
2022/01/23 08:38:14;;;;;;;16.52;9.10;;;5.90;99.90;;;;;;5045430;28;20045;-45
2022/01/23 08:41:49;;;;;;;20.00;9.20;;;5.90;99.90;;;;;;5048105;28;20052;-46
2022/01/23 08:43:36;;;;;;;17.85;7.82;;;5.90;99.90;;;;;;5043472;28;20272;-44
2022/01/23 08:46:03;;;;;;;15.35;8.43;;;5.90;99.90;;;;;;5043600;28;20132;-44
2022/01/23 08:48:30;;;;;;;20.55;7.50;;;6.00;99.90;;;;;;5043486;28;20059;-44
2022/01/23 08:50:56;;;;;;;9.30;6.43;;;6.00;99.90;;;;;;5047992;28;20080;-44
2022/01/23 08:53:24;;;;;;;14.70;7.55;;;6.00;99.90;;;;;;5048601;28;20080;-44
2022/01/23 08:55:51;;;;;;;18.17;8.63;;;6.00;99.90;;;;;;5048257;28;20481;-43
2022/01/23 08:58:17;;;;;;;13.30;7.25;;;6.00;99.90;;;;;;5043280;28;20048;-44
2022/01/23 09:00:45;;;;;;;12.98;6.50;;;6.10;99.90;;;;;;5050073;28;20072;-44
2022/01/23 09:03:12;;;;;;;13.85;7.38;;;6.10;99.90;;;;;;5047473;28;20045;-47
2022/01/23 09:05:39;;;;;;;12.50;6.47;;;6.10;99.90;;;;;;5047682;28;20405;-45
2022/01/23 09:08:06;;;;;;;11.93;6.38;;;6.20;99.90;;;;;;5044004;28;20063;-45
2022/01/23 09:10:40;;;;;;;11.68;7.13;;;6.20;99.90;;;;;;5051202;28;20041;-45
2022/01/23 09:13:14;;;;;;;11.80;6.40;;;6.20;99.90;;;;;;5049412;28;20059;-45
2022/01/23 09:15:40;;;;;;;11.23;6.20;;;6.20;99.90;;;;;;5043165;28;20099;-45
2022/01/23 09:18:09;;;;;;;11.15;5.68;;;6.20;99.90;;;;;;5040252;28;20557;-44
2022/01/23 09:20:35;;;;;;;9.27;5.60;;;6.40;99.90;;;;;;5043967;28;20619;-46
2022/01/23 09:23:02;;;;;;;12.73;5.60;;;6.30;99.90;;;;;;5050544;28;20052;-45
2022/01/23 09:25:29;;;;;;;8.75;5.10;;;6.30;99.90;;;;;;5047239;28;20381;-44
2022/01/23 09:27:56;;;;;;;12.35;5.47;;;6.30;99.90;;;;;;5044521;28;20053;-42
2022/01/23 09:30:23;;;;;;;8.88;5.43;;;6.30;99.90;;;;;;5045772;28;20501;-44
2022/01/23 09:32:50;;;;;;;8.45;5.30;;;6.30;99.90;;;;;;5050523;28;20045;-45
2022/01/23 09:35:18;;;;;;;10.32;5.40;;;6.40;99.90;;;;;;5048316;28;20080;-46
2022/01/23 09:37:45;;;;;;;8.98;5.18;;;6.40;99.90;;;;;;5044980;28;20045;-44
2022/01/23 09:40:12;;;;;;;11.10;5.78;;;6.40;99.90;;;;;;5043098;28;20124;-43
2022/01/23 09:42:43;;;;;;;9.10;4.97;;;6.50;99.90;;;;;;5045009;28;20041;-43
2022/01/23 09:45:11;;;;;;;10.98;5.97;;;6.50;99.90;;;;;;5049277;28;20536;-44
2022/01/23 09:47:37;;;;;;;9.95;5.80;;;6.50;99.90;;;;;;5050638;28;20065;-44
2022/01/23 09:50:05;;;;;;;11.75;6.05;;;6.60;99.90;;;;;;5047552;28;20053;-45
2022/01/23 09:52:34;;;;;;;11.60;6.00;;;6.60;99.90;;;;;;5042391;28;20059;-45
2022/01/23 09:55:07;;;;;;;12.18;6.10;;;6.70;99.90;;;;;;5043641;28;20107;-44
2022/01/23 09:57:35;;;;;;;17.38;6.90;;;6.70;99.90;;;;;;5047022;28;20053;-42
2022/01/23 10:00:04;;;;;;;11.80;5.90;;;6.70;99.90;;;;;;5050398;28;20057;-45
2022/01/23 10:02:31;;;;;;;12.77;6.47;;;6.70;99.90;;;;;;5048107;28;20123;-45
2022/01/23 10:04:58;;;;;;;15.00;7.65;;;6.80;99.90;;;;;;5044058;28;20152;-44
2022/01/23 10:07:24;;;;;;;14.95;7.63;;;6.80;99.90;;;;;;5049706;28;20048;-44
2022/01/23 10:09:56;;;;;;;16.75;7.93;;;6.80;99.90;;;;;;5044627;28;20367;-46
2022/01/23 10:12:26;;;;;;;12.80;7.22;;;6.80;99.90;;;;;;5046291;28;20462;-44
2022/01/23 10:14:55;;;;;;;13.88;7.25;;;6.90;99.90;;;;;;5049591;28;20052;-48
2022/01/23 10:17:22;;;;;;;19.65;8.25;;;6.90;99.90;;;;;;5044029;28;20050;-46
2022/01/23 10:19:49;;;;;;;19.20;9.05;;;6.90;99.90;;;;;;5036512;28;20059;-44
2022/01/23 10:22:16;;;;;;;19.48;8.95;;;7.00;99.90;;;;;;5039453;28;20068;-43
2022/01/23 10:24:43;;;;;;;16.08;8.27;;;7.00;99.90;;;;;;5042425;28;20135;-43
2022/01/23 10:27:11;;;;;;;15.20;8.93;;;7.00;99.90;;;;;;5041824;28;20147;-44
2022/01/23 10:29:43;;;;;;;18.77;8.77;;;7.10;99.90;;;;;;5045891;28;20133;-44
2022/01/23 10:32:12;;;;;;;16.33;7.57;;;7.10;99.90;;;;;;5043615;28;20053;-44
2022/01/23 10:34:54;;;;;;;13.50;7.68;;;7.20;99.90;;;;;;5041468;28;20571;-42
2022/01/23 10:37:40;;;;;;;14.13;8.13;;;7.20;99.90;;;;;;5045661;28;20054;-43
2022/01/23 10:40:10;;;;;;;15.63;7.68;;;7.20;99.90;;;;;;5042977;28;20041;-43
2022/01/23 10:46:35;;;;;;;15.85;7.90;;;7.30;99.90;;;;;;5048152;28;20045;-44
2022/01/23 10:48:36;;;;;;;14.90;7.88;;;7.40;99.90;;;;;;5039594;28;20085;-43
2022/01/23 10:51:27;;;;;;;14.02;7.22;;;7.40;99.90;;;;;;5046641;28;20455;-43
2022/01/23 10:54:16;;;;;;;14.18;7.85;;;7.40;99.90;;;;;;5040169;28;20128;-41
2022/01/23 10:56:57;;;;;;;12.15;6.80;;;7.50;99.90;;;;;;5047139;28;20535;-43
2022/01/23 10:59:25;;;;;;;14.73;8.35;;;7.60;99.90;;;;;;5045894;28;20466;-44
2022/01/23 11:02:00;;;;;;;12.23;7.03;;;7.60;99.90;;;;;;5046987;28;20412;-42
2022/01/23 11:04:27;;;;;;;10.73;6.05;;;7.70;99.90;;;;;;5045997;28;20140;-44
2022/01/23 11:06:55;;;;;;;12.80;6.05;;;7.60;99.90;;;;;;5044306;28;20140;-44
2022/01/23 11:09:25;;;;;;;8.98;6.10;;;7.70;99.90;;;;;;5045710;28;20052;-44
2022/01/23 11:12:00;;;;;;;14.88;8.13;;;7.70;99.90;;;;;;5048796;28;20173;-42
2022/01/23 11:17:22;;;;;;;13.55;7.75;;;7.70;99.90;;;;;;5044780;28;20107;-44
2022/01/23 11:19:49;;;;;;;10.38;6.45;;;7.60;99.90;;;;;;5042246;28;20136;-43
2022/01/23 11:22:17;;;;;;;11.30;7.10;;;7.60;99.90;;;;;;5046303;28;20570;-44
2022/01/23 11:24:45;;;;;;;10.25;5.70;;;7.60;99.90;;;;;;5044398;28;20045;-45
2022/01/23 11:27:12;;;;;;;10.43;5.80;;;7.70;99.90;;;;;;5048591;28;20400;-45
2022/01/23 11:30:04;;;;;;;9.85;6.43;;;7.60;99.90;;;;;;5051920;28;20060;-44
2022/01/23 11:32:36;;;;;;;10.63;5.93;;;7.70;99.90;;;;;;5050852;28;20063;-45
2022/01/23 11:35:07;;;;;;;9.30;5.57;;;7.70;99.90;;;;;;5047461;28;20047;-44
2022/01/23 11:37:34;;;;;;;7.55;5.95;;;7.60;99.90;;;;;;5046537;28;20558;-45
2022/01/23 11:40:07;;;;;;;9.50;5.45;;;7.70;99.90;;;;;;5047578;28;20132;-46
2022/01/23 11:51:07;;;;;;;6.10;4.80;;;7.60;99.90;;;;;;5049838;28;20045;-44
2022/01/23 11:53:49;;;;;;;7.03;4.45;;;7.60;99.90;;;;;;5050067;28;20386;-42
2022/01/23 11:56:44;;;;;;;8.80;5.32;;;7.60;99.90;;;;;;5049384;28;20048;-44
2022/01/23 11:59:21;;;;;;;5.45;2.90;;;7.70;99.90;;;;;;5049306;28;20041;-45
2022/01/23 12:02:05;;;;;;;4.78;3.10;;;7.70;99.90;;;;;;5051083;28;20080;-44
2022/01/23 12:04:34;;;;;;;2.60;1.20;;;7.80;99.90;;;;;;5046269;28;20148;-44
2022/01/23 12:07:20;;;;;;;1.73;0.50;;;7.80;99.90;;;;;;5045556;28;20052;-45
2022/01/23 12:10:15;;;;;;;0.88;0.63;;;7.80;99.90;;;;;;5046672;28;20135;-43
2022/01/23 12:12:45;;;;;;;0.50;0.30;;;7.80;99.90;;;;;;5044178;28;20049;-44
2022/01/23 12:18:17;;;;;;;1.02;0.40;;;7.80;99.90;;;;;;5047992;28;20477;-45
2022/01/23 12:20:45;;;;;;;0.75;0.35;;;7.80;99.90;;;;;;5045505;28;20413;-43
2022/01/23 12:23:11;;;;;;;0.77;0.40;;;7.80;99.90;;;;;;5042699;28;20187;-44
2022/01/23 12:25:42;;;;;;;0.98;0.40;;;7.80;99.90;;;;;;5062421;28;20049;-47
2022/01/23 12:28:24;;;;;;;0.70;0.32;;;7.80;99.90;;;;;;5041968;28;20045;-44
2022/01/23 12:30:53;;;;;;;0.88;0.60;;;7.80;99.90;;;;;;5039439;28;20124;-47
2022/01/23 12:33:32;;;;;;;1.08;0.70;;;7.90;99.90;;;;;;5042418;28;20060;-48
2022/01/23 12:36:05;;;;;;;0.68;0.60;;;7.90;99.90;;;;;;5048899;28;20049;-45
2022/01/23 12:38:37;;;;;;;1.27;0.70;;;7.90;99.90;;;;;;5039294;28;20045;-46
2022/01/23 12:41:20;;;;;;;1.65;0.88;;;7.90;99.90;;;;;;5044530;28;20515;-49
2022/01/23 12:43:47;;;;;;;1.33;1.00;;;7.90;99.90;;;;;;5043690;28;20053;-46
2022/01/23 12:46:18;;;;;;;6.47;1.63;;;7.90;99.90;;;;;;5049284;28;20051;-44
2022/01/23 12:48:48;;;;;;;2.17;1.80;;;7.80;99.90;;;;;;5046272;28;20044;-45
2022/01/23 12:51:45;;;;;;;3.63;2.90;;;7.90;99.90;;;;;;5041994;28;20147;-47
2022/01/23 12:54:17;;;;;;;2.08;1.23;;;7.90;99.90;;;;;;4999998;28;20046;-45
2022/01/23 12:56:45;;;;;;;;;;;7.80;99.90;;;;;;5042730;28;20048;-46
2022/01/23 12:59:15;;;;;;;2.45;1.55;;;7.80;99.90;;;;;;5044935;28;19921;-46
2022/01/23 13:01:46;;;;;;;2.25;1.50;;;7.80;99.90;;;;;;5045271;28;20119;-47
2022/01/23 13:04:15;;;;;;;3.33;1.77;;;7.80;99.90;;;;;;5046043;28;20068;-45
2022/01/23 13:06:49;;;;;;;1.90;1.10;;;7.80;99.90;;;;;;5050885;28;20518;-45
2022/01/23 13:09:22;;;;;;;2.53;1.70;;;7.80;99.90;;;;;;5045584;28;20156;-46
2022/01/23 13:12:06;;;;;;;1.55;0.90;;;7.80;99.90;;;;;;5044778;28;20064;-45
2022/01/23 13:14:49;;;;;;;6.80;5.15;;;7.80;99.90;;;;;;5047329;28;20459;-43
2022/01/23 13:17:33;;;;;;;2.80;2.17;;;7.80;99.90;;;;;;5044771;28;20053;-46
2022/01/23 13:31:07;;;;;;;3.67;2.75;;;7.80;99.90;;;;;;5041057;28;20088;-45
2022/01/23 13:33:33;;;;;;;3.53;2.50;;;7.70;99.90;;;;;;5045967;28;20505;-43
2022/01/23 13:36:04;;;;;;;5.60;4.30;;;7.70;99.90;;;;;;5045904;28;20488;-44
2022/01/23 13:38:34;;;;;;;9.98;8.60;;;7.70;99.90;;;;;;5036990;28;20119;-44
2022/01/23 13:41:09;;;;;;;9.73;8.82;;;7.70;99.90;;;;;;5040447;28;20527;-44
2022/01/23 13:52:10;;;;;;;6.25;4.90;;;7.70;99.90;;;;;;5037981;28;20045;-43
2022/01/23 13:59:59;;;;;;;4.93;3.92;;;7.80;99.90;;;;;;5045649;28;20132;-46
2022/01/23 14:02:27;;;;;;;5.60;3.77;;;7.80;99.90;;;;;;5039376;28;20065;-45
2022/01/23 14:04:56;;;;;;;4.85;4.28;;;7.80;99.90;;;;;;5048283;28;20643;-45
2022/01/23 14:07:25;;;;;;;3.90;3.28;;;7.80;99.90;;;;;;5042469;28;20131;-45
2022/01/23 14:09:53;;;;;;;5.03;3.80;;;7.80;99.90;;;;;;5044696;28;20432;-44
2022/01/23 14:12:20;;;;;;;6.70;5.70;;;7.80;99.90;;;;;;5044291;28;20114;-45
2022/01/23 14:14:55;;;;;;;4.88;2.90;;;7.80;99.90;;;;;;5043636;28;20051;-43
2022/01/23 14:17:23;;;;;;;4.97;1.50;;;7.70;99.90;;;;;;5044203;28;20041;-46
2022/01/23 14:19:57;;;;;;;3.05;1.80;;;7.70;99.90;;;;;;5044374;28;20056;-45
2022/01/23 14:22:29;;;;;;;3.50;2.00;;;7.70;99.90;;;;;;5040617;28;20045;-43
2022/01/23 14:25:09;;;;;;;4.97;3.33;;;7.60;99.90;;;;;;5044597;28;20088;-44
2022/01/23 14:27:36;;;;;;;6.63;3.85;;;7.60;99.90;;;;;;5044922;28;20139;-44
2022/01/23 14:30:06;;;;;;;7.30;3.72;;;7.60;99.90;;;;;;5043910;28;20053;-45
2022/01/23 14:32:40;;;;;;;9.68;5.32;;;7.60;99.90;;;;;;5044226;28;20111;-46
2022/01/23 14:35:08;;;;;;;5.75;2.90;;;7.60;99.90;;;;;;5045756;28;20098;-45
2022/01/23 14:37:36;;;;;;;3.25;1.67;;;7.60;99.90;;;;;;5045206;28;20136;-45
2022/01/23 14:40:15;;;;;;;6.25;3.65;;;7.50;99.90;;;;;;5045140;28;20549;-46
2022/01/23 14:42:56;;;;;;;3.90;1.70;;;7.50;99.90;;;;;;5039923;28;20071;-45
2022/01/23 14:45:23;;;;;;;4.47;1.52;;;7.50;99.90;;;;;;5040541;28;20047;-44
2022/01/23 14:47:50;;;;;;;16.25;11.57;;;7.50;99.90;;;;;;5039595;28;20047;-45
2022/01/23 14:50:19;;;;;;;32.13;14.95;;;7.50;99.90;;;;;;5044970;28;20472;-47
2022/01/23 14:52:48;;;;;;;13.18;4.97;;;7.50;99.90;;;;;;5044576;28;20051;-43
2022/01/23 14:55:15;;;;;;;11.88;4.90;;;7.60;99.90;;;;;;5046702;28;20045;-46
2022/01/23 14:57:43;;;;;;;6.13;2.17;;;7.50;99.90;;;;;;5046109;28;20120;-44
2022/01/23 15:00:11;;;;;;;6.20;4.22;;;7.50;99.90;;;;;;5043645;28;20068;-44
2022/01/23 15:02:38;;;;;;;7.32;3.33;;;7.50;99.90;;;;;;5049255;28;20056;-45
2022/01/23 15:05:05;;;;;;;6.68;3.50;;;7.50;99.90;;;;;;5042032;28;20071;-45
2022/01/23 15:07:34;;;;;;;9.63;5.07;;;7.40;99.90;;;;;;5049754;28;20144;-43
2022/01/23 15:10:03;;;;;;;5.00;2.50;;;7.40;99.90;;;;;;5050224;28;20049;-44
2022/01/23 15:12:30;;;;;;;11.07;6.70;;;7.40;99.90;;;;;;5050160;28;20572;-49
2022/01/23 15:14:56;;;;;;;6.60;3.75;;;7.50;99.90;;;;;;5049761;28;20052;-44
2022/01/23 15:17:25;;;;;;;7.72;5.22;;;7.40;99.90;;;;;;5042708;28;20119;-44
2022/01/23 15:19:51;;;;;;;9.65;5.00;;;7.40;99.90;;;;;;5043908;28;20045;-44
2022/01/23 15:22:18;;;;;;;3.55;2.30;;;7.30;99.90;;;;;;5050529;28;20124;-45
2022/01/23 15:24:45;;;;;;;6.90;3.55;;;7.30;99.90;;;;;;5046198;28;20396;-43
2022/01/23 15:27:13;;;;;;;33.38;17.98;;;7.30;99.90;;;;;;5045170;28;20048;-43
2022/01/23 15:29:40;;;;;;;30.67;15.48;;;7.30;99.90;;;;;;5050462;28;20045;-42
2022/01/23 15:32:08;;;;;;;27.08;13.63;;;7.20;99.90;;;;;;5041987;28;20054;-44
2022/01/23 15:34:35;;;;;;;30.42;14.82;;;7.20;99.90;;;;;;5051608;28;20053;-45
2022/01/23 15:37:02;;;;;;;18.70;11.15;;;7.20;99.90;;;;;;5047716;28;20129;-43
2022/01/23 15:39:30;;;;;;;16.00;9.27;;;7.20;99.90;;;;;;5046697;28;20047;-46